Time;durP1;ratioP1;P1;durP2;ratioP2;P2;SDS_P1;SDS_P2;PMS_P1;PMS_P2;Temp;Humidity;BMP_temperature;BMP_pressure;BME280_temperature;BME280_humidity;BME280_pressure;Samples;Min_cycle;Max_cycle;Signal;HPM_P1;HPM_P2
2022/10/25 00:00:49;;;;;;;21.45;9.38;;;;;;;4.08;79.85;101627.09;4895809;28;20066;-63
2022/10/25 00:03:53;;;;;;;21.55;9.27;;;;;;;4.20;80.12;101626.63;4955205;28;20135;-63
2022/10/25 00:06:39;;;;;;;18.13;9.10;;;;;;;4.33;80.15;101623.56;4894685;28;20060;-63
2022/10/25 00:09:22;;;;;;;18.92;9.40;;;;;;;4.49;80.25;101624.03;4919476;28;20086;-63
2022/10/25 00:12:09;;;;;;;20.38;8.73;;;;;;;4.65;79.86;101621.09;4892429;28;20048;-63
2022/10/25 00:14:53;;;;;;;20.42;8.77;;;;;;;4.80;79.45;101617.19;4906524;28;20050;-63
2022/10/25 00:17:33;;;;;;;17.75;8.65;;;;;;;4.96;79.18;101616.78;4919551;28;20070;-63
2022/10/25 00:23:04;;;;;;;15.85;6.93;;;;;;;5.60;77.50;101608.16;4878826;28;20048;-64
2022/10/25 00:25:46;;;;;;;12.68;6.50;;;;;;;5.98;76.63;101609.97;4929928;28;20132;-62
2022/10/25 00:28:45;;;;;;;13.07;5.43;;;;;;;6.24;74.19;101613.16;4908162;28;20041;-63
2022/10/25 00:31:33;;;;;;;10.52;4.93;;;;;;;6.18;72.69;101608.72;4861223;28;20083;-62
2022/10/25 00:34:16;;;;;;;10.25;5.20;;;;;;;6.04;72.56;101600.63;4908357;28;20036;-63
2022/10/25 00:37:05;;;;;;;16.60;5.03;;;;;;;5.79;71.96;101593.03;4868777;28;20044;-63
2022/10/25 00:39:40;;;;;;;;;;;;;;;5.89;71.82;101604.50;4904612;28;20098;-63
2022/10/25 00:42:27;;;;;;;11.70;5.38;;;;;;;5.75;71.83;101557.50;4888306;28;20341;-62
2022/10/25 00:48:25;;;;;;;17.88;5.68;;;;;;;6.40;71.08;101594.50;4884692;28;20114;-62
2022/10/25 00:51:18;;;;;;;23.92;7.55;;;;;;;6.55;71.20;101593.09;4844410;28;20108;-62
2022/10/25 00:54:05;;;;;;;16.42;7.07;;;;;;;6.81;70.94;101594.50;4916202;28;20133;-62
2022/10/25 00:56:52;;;;;;;20.20;5.25;;;;;;;7.00;69.71;101597.47;4916644;28;20229;-59
2022/10/25 00:59:37;;;;;;;22.42;6.35;;;;;;;7.12;68.23;101592.50;4908858;28;20091;-62
2022/10/25 01:05:10;;;;;;;9.90;5.35;;;;;;;7.18;66.35;101545.81;4903108;28;20102;-62
2022/10/25 01:07:55;;;;;;;22.75;6.40;;;;;;;7.39;66.15;101573.94;4897027;28;20064;-60
2022/10/25 01:10:44;;;;;;;17.73;6.28;;;;;;;7.23;65.02;101562.38;4916696;28;20060;-60
2022/10/25 01:13:33;;;;;;;20.10;9.60;;;;;;;7.17;65.16;101575.28;4881256;28;20289;-60
2022/10/25 01:19:35;;;;;;;27.70;9.13;;;;;;;7.30;65.57;101514.84;4827069;28;20057;-63
2022/10/25 01:22:22;;;;;;;9.75;4.15;;;;;;;7.85;63.86;101571.22;4876464;28;20077;-62
2022/10/25 01:25:24;;;;;;;13.43;6.68;;;;;;;7.93;63.25;101574.81;4880766;28;20346;-62
2022/10/25 01:28:13;;;;;;;16.52;7.50;;;;;;;7.91;63.80;101571.31;4857047;28;20045;-60
2022/10/25 01:31:23;;;;;;;26.23;8.60;;;;;;;7.80;64.33;101567.69;4883075;28;20125;-62
2022/10/25 01:34:06;;;;;;;26.75;7.90;;;;;;;7.71;64.57;101571.91;4873257;28;20049;-62
2022/10/25 01:37:18;;;;;;;13.20;5.03;;;;;;;7.61;63.69;101567.38;4873292;28;20223;-60
2022/10/25 01:40:17;;;;;;;11.30;4.10;;;;;;;7.47;62.23;101568.88;4876833;28;20054;-62
2022/10/25 01:43:23;;;;;;;12.73;4.43;;;;;;;7.37;62.07;101556.56;4878928;28;20061;-60
2022/10/25 01:46:38;;;;;;;10.63;4.75;;;;;;;7.56;62.45;101574.22;4898483;28;20046;-60
2022/10/25 01:49:53;;;;;;;6.05;3.50;;;;;;;7.64;61.45;101559.63;4906482;28;20305;-62
2022/10/25 01:52:35;;;;;;;7.53;3.30;;;;;;;7.65;61.04;101563.97;4923123;28;20059;-62
2022/10/25 01:55:19;;;;;;;5.65;2.67;;;;;;;7.85;60.59;101571.22;4919802;28;20059;-60
2022/10/25 01:58:28;;;;;;;11.77;2.70;;;;;;;8.26;60.01;101573.56;4913984;28;20051;-61
2022/10/25 02:01:16;;;;;;;6.07;3.05;;;;;;;8.64;58.96;101569.78;4898014;28;20074;-62
2022/10/25 02:04:13;;;;;;;7.95;2.58;;;;;;;8.84;58.47;101561.34;4925508;28;20045;-62
2022/10/25 02:07:08;;;;;;;7.03;2.28;;;;;;;9.06;56.77;101570.25;4887257;28;20248;-60
2022/10/25 02:09:58;;;;;;;3.85;2.72;;;;;;;8.98;56.48;101564.94;4930149;28;20075;-62
2022/10/25 02:13:03;;;;;;;6.55;2.45;;;;;;;8.83;56.77;101562.19;4919087;28;20135;-62
2022/10/25 02:15:55;;;;;;;8.68;2.50;;;;;;;8.78;57.07;101549.09;4911259;28;20083;-62
2022/10/25 02:18:51;;;;;;;3.65;1.80;;;;;;;9.00;54.83;101555.41;4899170;28;20075;-62
2022/10/25 02:21:35;;;;;;;5.35;1.83;;;;;;;8.95;54.67;101557.09;4899515;28;20052;-62
2022/10/25 02:24:29;;;;;;;4.10;1.70;;;;;;;8.70;51.80;101560.28;4900996;28;20086;-62
2022/10/25 02:27:14;;;;;;;2.85;1.90;;;;;;;8.41;53.47;101558.19;4907448;28;20321;-62
2022/10/25 02:30:05;;;;;;;3.25;2.00;;;;;;;8.37;53.46;101558.97;4893054;28;20076;-61
2022/10/25 02:32:42;;;;;;;5.85;1.92;;;;;;;8.11;53.44;101523.06;4914701;28;20171;-62
2022/10/25 02:36:08;;;;;;;2.35;1.50;;;;;;;8.47;52.17;101558.28;4910785;28;20049;-61
2022/10/25 02:39:02;;;;;;;3.17;1.90;;;;;;;8.40;51.61;101519.97;4904711;28;20041;-61
2022/10/25 02:41:43;;;;;;;12.20;2.13;;;;;;;8.40;51.32;101546.03;4914372;28;20108;-60
2022/10/25 02:44:56;;;;;;;5.93;1.90;;;;;;;8.30;52.48;101547.59;4857315;28;20056;-60
2022/10/25 02:47:41;;;;;;;4.30;1.65;;;;;;;8.17;52.79;101553.50;4858540;28;20326;-62
2022/10/25 02:50:24;;;;;;;2.75;1.88;;;;;;;8.05;52.60;101548.97;4897856;28;20107;-61
2022/10/25 02:53:37;;;;;;;2.53;1.67;;;;;;;8.07;53.00;101544.69;4828624;28;20149;-62
2022/10/25 02:56:22;;;;;;;3.05;1.80;;;;;;;7.87;53.44;101496.66;4901485;28;20039;-61
2022/10/25 02:59:29;;;;;;;3.65;1.65;;;;;;;8.07;51.84;101542.06;4876894;28;20077;-62
2022/10/25 03:02:06;;;;;;;10.57;1.98;;;;;;;8.03;51.78;101542.88;4877743;28;20322;-62
2022/10/25 03:04:55;;;;;;;4.82;1.65;;;;;;;7.58;50.93;101497.09;4920179;28;20056;-61
2022/10/25 03:07:44;;;;;;;4.15;1.73;;;;;;;7.72;51.60;101542.41;4919808;28;20120;-61
2022/10/25 03:10:48;;;;;;;6.78;1.83;;;;;;;7.47;51.42;101548.06;4921788;28;20053;-60
2022/10/25 03:14:02;;;;;;;8.80;3.00;;;;;;;7.42;52.63;101547.13;4908870;28;20042;-61
2022/10/25 03:16:54;;;;;;;7.43;2.20;;;;;;;7.16;51.93;101498.13;4927864;28;20048;-61
2022/10/25 03:20:01;;;;;;;3.88;1.80;;;;;;;7.64;53.35;101541.44;4916584;28;20046;-61
2022/10/25 03:25:34;;;;;;;4.75;1.90;;;;;;;7.81;50.38;101540.81;4859089;28;20079;-61
2022/10/25 03:31:24;;;;;;;6.50;2.47;;;;;;;8.21;51.36;101524.94;4913264;28;20060;-62
2022/10/25 03:37:26;;;;;;;4.80;2.20;;;;;;;8.78;50.66;101532.59;4837608;28;20529;-61
2022/10/25 03:40:12;;;;;;;4.53;1.88;;;;;;;8.76;48.64;101529.97;4844779;28;20082;-61
2022/10/25 03:42:58;;;;;;;2.35;1.63;;;;;;;9.01;50.58;101533.72;4868503;28;20056;-61
2022/10/25 03:45:55;;;;;;;4.22;1.70;;;;;;;8.91;48.90;101498.00;4867255;28;20041;-61
2022/10/25 03:51:44;;;;;;;3.10;1.77;;;;;;;9.10;49.13;101529.44;4878200;28;20053;-61
2022/10/25 03:57:37;;;;;;;5.20;2.08;;;;;;;8.97;48.93;101524.09;4865576;28;20054;-62
2022/10/25 04:00:19;;;;;;;2.38;1.65;;;;;;;8.98;48.57;101531.06;4869808;28;20084;-62
2022/10/25 04:03:00;;;;;;;2.55;1.70;;;;;;;8.92;48.58;101524.94;4839954;28;20041;-62
2022/10/25 04:05:42;;;;;;;4.03;1.60;;;;;;;8.93;49.38;101517.09;4847072;28;20049;-62
2022/10/25 04:08:40;;;;;;;;;;;;;;;8.91;47.88;101529.28;4844129;28;20045;-62
2022/10/25 04:11:24;;;;;;;4.88;1.80;;;;;;;8.85;48.19;101518.75;4823180;28;20119;-62
2022/10/25 04:13:57;;;;;;;4.95;1.50;;;;;;;8.60;48.89;101484.63;4879092;28;20054;-63
2022/10/25 04:16:41;;;;;;;3.88;1.77;;;;;;;8.83;48.61;101525.69;4870961;28;20045;-61
2022/10/25 04:19:17;;;;;;;2.10;1.35;;;;;;;8.86;49.41;101530.94;4856159;28;20056;-61
2022/10/25 04:25:06;;;;;;;3.40;1.67;;;;;;;8.73;48.80;101529.06;4866912;28;20064;-62
2022/10/25 04:27:42;;;;;;;1.92;1.40;;;;;;;8.71;50.02;101530.75;4863237;28;20058;-61
2022/10/25 04:30:31;;;;;;;3.65;1.80;;;;;;;8.73;50.41;101518.63;4872723;28;20042;-62
2022/10/25 04:33:23;;;;;;;3.15;1.50;;;;;;;8.69;50.05;101511.66;4846957;28;20485;-60
2022/10/25 04:36:04;;;;;;;5.68;1.63;;;;;;;8.69;50.14;101522.06;4866329;28;20049;-61
2022/10/25 04:38:43;;;;;;;4.45;1.85;;;;;;;8.63;50.55;101513.28;4863001;28;20047;-61
2022/10/25 04:41:44;;;;;;;5.22;1.80;;;;;;;8.62;50.66;101521.97;4837495;28;20074;-62
2022/10/25 04:44:33;;;;;;;3.90;1.77;;;;;;;8.68;50.65;101525.53;4851932;28;20141;-61
2022/10/25 04:47:07;;;;;;;3.20;1.60;;;;;;;8.63;49.65;101533.28;4849746;28;20072;-62
2022/10/25 04:49:44;;;;;;;4.38;1.63;;;;;;;8.61;49.95;101525.47;4867297;28;20376;-62
2022/10/25 04:52:22;;;;;;;3.58;1.80;;;;;;;8.51;49.87;101536.63;4819102;28;20060;-61
2022/10/25 04:55:01;;;;;;;2.67;1.45;;;;;;;8.34;50.80;101514.66;4929073;28;20186;-61
2022/10/25 04:57:51;;;;;;;3.80;1.80;;;;;;;8.45;50.94;101531.31;4921626;28;20344;-61
2022/10/25 05:00:39;;;;;;;3.63;1.52;;;;;;;8.41;51.10;101526.91;4940433;28;20111;-61
2022/10/25 05:03:33;;;;;;;3.15;1.63;;;;;;;8.52;50.17;101530.56;4934033;28;20044;-62
2022/10/25 05:06:14;;;;;;;5.07;1.70;;;;;;;8.49;50.25;101530.53;4964269;28;20054;-62
2022/10/25 05:09:02;;;;;;;3.05;1.85;;;;;;;8.51;50.82;101528.81;4910584;28;20169;-62
2022/10/25 05:14:46;;;;;;;6.03;1.60;;;;;;;8.46;50.41;101533.06;4902692;28;21027;-62
2022/10/25 05:17:21;;;;;;;2.47;1.70;;;;;;;8.38;50.17;101537.28;4908093;28;20865;-62
2022/10/25 05:20:08;;;;;;;3.00;1.85;;;;;;;8.34;50.41;101536.38;4912783;28;20074;-61
2022/10/25 05:22:50;;;;;;;8.32;1.70;;;;;;;8.32;50.81;101542.41;4899581;28;20059;-61
2022/10/25 05:25:38;;;;;;;5.78;1.65;;;;;;;8.29;50.95;101530.22;4939097;28;20060;-61
2022/10/25 05:28:31;;;;;;;4.90;1.95;;;;;;;8.36;51.15;101531.16;4904405;28;20055;-62
2022/10/25 05:31:50;;;;;;;2.38;1.38;;;;;;;8.32;50.45;101548.50;4929396;28;20061;-62
2022/10/25 05:34:42;;;;;;;5.38;1.70;;;;;;;8.31;51.09;101549.38;4906443;28;20394;-61
2022/10/25 05:37:17;;;;;;;3.20;1.77;;;;;;;8.29;51.25;101547.59;4892193;28;20041;-61
2022/10/25 05:40:25;;;;;;;2.83;1.45;;;;;;;8.26;50.60;101542.31;4908891;28;20509;-62
2022/10/25 05:43:12;;;;;;;2.22;1.48;;;;;;;8.19;50.35;101547.47;4905757;28;20056;-62
2022/10/25 05:46:16;;;;;;;5.22;1.80;;;;;;;8.05;50.00;101548.97;4904044;28;20044;-61
2022/10/25 05:49:33;;;;;;;3.90;1.60;;;;;;;7.99;51.41;101559.31;4899514;28;20092;-62
2022/10/25 05:52:47;;;;;;;3.20;2.00;;;;;;;7.95;51.35;101560.13;4889081;28;20109;-62
2022/10/25 05:55:47;;;;;;;3.25;1.40;;;;;;;7.92;51.82;101563.53;4877636;28;20040;-61
2022/10/25 05:58:40;;;;;;;3.45;1.77;;;;;;;7.84;51.62;101574.66;4883938;28;20041;-61
2022/10/25 06:01:19;;;;;;;3.03;1.63;;;;;;;7.81;51.76;101569.41;4923188;28;20394;-61
2022/10/25 06:04:12;;;;;;;3.15;1.88;;;;;;;7.68;51.61;101569.22;4919049;28;20106;-63
2022/10/25 06:06:59;;;;;;;4.53;1.98;;;;;;;7.67;51.42;101593.50;4902244;28;20073;-60
2022/10/25 06:09:45;;;;;;;4.75;1.80;;;;;;;7.62;52.08;101595.16;4926879;28;20407;-61
2022/10/25 06:12:48;;;;;;;4.32;2.22;;;;;;;7.56;52.66;101584.63;4909208;28;20082;-63
2022/10/25 06:15:39;;;;;;;2.72;1.85;;;;;;;7.52;52.59;101590.66;4908947;28;20066;-61
2022/10/25 06:18:20;;;;;;;4.05;1.70;;;;;;;7.46;53.25;101593.13;4925878;28;20052;-61
2022/10/25 06:21:12;;;;;;;3.20;1.70;;;;;;;7.39;53.10;101588.66;4914722;28;20124;-61
2022/10/25 06:24:03;;;;;;;6.70;2.00;;;;;;;7.33;53.63;101592.91;4900542;28;20390;-62
2022/10/25 06:26:55;;;;;;;4.10;2.05;;;;;;;7.17;53.21;101579.63;4917126;28;20070;-62
2022/10/25 06:30:02;;;;;;;6.68;2.50;;;;;;;7.08;53.32;101593.28;4893168;28;20382;-61
2022/10/25 06:35:49;;;;;;;9.82;3.10;;;;;;;6.83;53.92;101589.34;4921420;28;20127;-61
2022/10/25 06:38:45;;;;;;;6.15;2.50;;;;;;;6.83;55.28;101600.59;4927736;28;20255;-61
2022/10/25 06:41:30;;;;;;;7.97;3.03;;;;;;;6.80;55.48;101610.06;4920336;28;20048;-61
2022/10/25 06:44:28;;;;;;;14.40;3.63;;;;;;;6.68;54.96;101601.16;4919415;28;20079;-61
2022/10/25 06:47:35;;;;;;;7.53;2.53;;;;;;;6.59;55.80;101611.38;4907684;28;20121;-61
2022/10/25 06:50:24;;;;;;;4.90;2.00;;;;;;;6.53;56.85;101599.97;4904267;28;20057;-62
2022/10/25 06:53:15;;;;;;;5.40;2.08;;;;;;;6.45;55.88;101600.66;4934983;28;20100;-61
2022/10/25 06:56:23;;;;;;;;;;;;;;;;;;;;;
2022/10/25 06:59:22;;;;;;;10.25;2.42;;;;;;;6.20;57.49;101600.97;4924618;28;20205;-62
2022/10/25 07:02:02;;;;;;;4.97;2.75;;;;;;;6.11;58.16;101611.13;4933357;28;20320;-61
2022/10/25 07:04:57;;;;;;;16.00;6.68;;;;;;;6.03;59.34;101614.41;4912577;28;20065;-62
2022/10/25 07:07:56;;;;;;;18.67;9.10;;;;;;;5.96;59.43;101607.31;4933982;28;20123;-61
2022/10/25 07:11:07;;;;;;;38.15;17.05;;;;;;;5.83;59.34;101613.91;4937198;28;20081;-62
2022/10/25 07:14:01;;;;;;;86.07;35.60;;;;;;;5.69;59.06;101596.25;4921938;28;20090;-63
2022/10/25 07:16:55;;;;;;;54.40;21.77;;;;;;;5.58;60.41;101607.22;4910571;28;20557;-62
2022/10/25 07:19:39;;;;;;;98.38;35.70;;;;;;;5.50;60.23;101619.13;4906308;28;20084;-62
2022/10/25 07:22:33;;;;;;;66.35;23.10;;;;;;;5.41;61.23;101621.47;4927544;28;20048;-63
2022/10/25 07:25:22;;;;;;;10.77;6.22;;;;;;;5.22;60.88;101619.22;4935884;28;20341;-62
2022/10/25 07:28:12;;;;;;;9.63;5.13;;;;;;;5.02;61.34;101616.97;4924961;28;20054;-63
2022/10/25 07:31:13;;;;;;;11.18;5.10;;;;;;;4.81;61.52;101625.00;4922839;28;20049;-63
2022/10/25 07:33:57;;;;;;;19.42;5.00;;;;;;;4.64;63.27;101628.78;4937772;28;20046;-63
2022/10/25 07:36:39;;;;;;;7.47;3.33;;;;;;;4.42;62.96;101627.28;4875221;28;20435;-62
2022/10/25 07:39:41;;;;;;;8.13;2.45;;;;;;;4.24;63.52;101625.91;4914714;28;20575;-60
2022/10/25 07:42:21;;;;;;;9.13;5.18;;;;;;;4.09;63.80;101634.06;4906573;28;20093;-60
2022/10/25 07:45:14;;;;;;;14.65;5.70;;;;;;;3.98;64.51;101645.75;4852498;28;20555;-60
2022/10/25 07:47:56;;;;;;;10.85;4.80;;;;;;;3.74;65.52;101637.19;4893618;28;20044;-62
2022/10/25 07:50:49;;;;;;;12.70;3.85;;;;;;;3.55;66.20;101638.28;4892446;28;20267;-64
2022/10/25 07:53:34;;;;;;;8.70;3.53;;;;;;;3.37;67.13;101644.56;4923296;28;20052;-62
2022/10/25 07:56:20;;;;;;;5.88;2.85;;;;;;;3.11;68.33;101645.34;4945010;28;20122;-62
2022/10/25 07:59:06;;;;;;;5.35;2.50;;;;;;;2.65;69.77;101643.63;4905621;28;20052;-63
2022/10/25 08:01:52;;;;;;;8.38;2.42;;;;;;;2.45;71.45;101659.22;4901651;28;20049;-63
2022/10/25 08:04:24;;;;;;;6.88;2.22;;;;;;;2.23;72.15;101670.41;4926243;28;20040;-62
2022/10/25 08:07:03;;;;;;;6.57;2.17;;;;;;;2.08;72.87;101675.81;4941733;28;20146;-63
2022/10/25 08:09:55;;;;;;;4.20;2.47;;;;;;;1.99;73.52;101674.56;4868602;28;20902;-63
2022/10/25 08:12:49;;;;;;;9.07;4.85;;;;;;;1.89;73.76;101678.44;4904640;28;20044;-62
2022/10/25 08:15:31;;;;;;;25.73;12.10;;;;;;;1.83;73.81;101683.34;4925119;28;20048;-63
2022/10/25 08:18:21;;;;;;;34.55;17.75;;;;;;;1.77;74.81;101686.53;4932992;28;20053;-64
2022/10/25 08:21:19;;;;;;;20.65;11.80;;;;;;;1.68;75.37;101684.47;4883816;28;20116;-63
2022/10/25 08:24:34;;;;;;;9.50;4.53;;;;;;;1.50;75.64;101689.72;4912716;28;20060;-64
2022/10/25 08:28:01;;;;;;;13.50;5.63;;;;;;;1.33;76.22;101692.38;4907678;28;20535;-66
2022/10/25 08:31:04;;;;;;;17.35;7.65;;;;;;;1.25;76.82;101687.75;4912611;28;20072;-63
2022/10/25 08:36:57;;;;;;;11.00;5.90;;;;;;;0.99;77.78;101688.28;4912399;28;20047;-62
2022/10/25 08:39:53;;;;;;;81.15;40.17;;;;;;;0.92;78.31;101701.69;4866272;28;20048;-63
2022/10/25 08:43:24;;;;;;;63.22;33.60;;;;;;;0.51;78.66;101644.06;4902733;28;20041;-63
2022/10/25 08:46:17;;;;;;;43.78;24.15;;;;;;;0.80;78.83;101700.31;4884870;28;20574;-64
2022/10/25 08:49:11;;;;;;;30.95;18.35;;;;;;;0.76;79.35;101706.13;4915638;28;20048;-64
2022/10/25 08:52:18;;;;;;;21.08;11.52;;;;;;;0.60;79.81;101690.75;4870339;28;20114;-64
2022/10/25 08:55:21;;;;;;;13.80;9.15;;;;;;;0.63;80.02;101708.94;4899849;28;20044;-62
2022/10/25 08:59:08;;;;;;;56.22;26.52;;;;;;;-0.15;79.70;101592.97;4898077;28;20086;-62
2022/10/25 09:01:58;;;;;;;17.23;11.02;;;;;;;0.64;80.05;101720.97;4885177;28;20071;-63
2022/10/25 09:04:40;;;;;;;9.65;7.00;;;;;;;0.61;80.16;101720.84;4889032;28;20464;-64
2022/10/25 09:07:27;;;;;;;9.75;5.78;;;;;;;0.57;80.18;101718.91;4881436;28;20041;-63
2022/10/25 09:10:24;;;;;;;4.72;3.08;;;;;;;0.57;79.85;101724.94;4912932;28;20121;-65
2022/10/25 09:13:25;;;;;;;8.80;4.25;;;;;;;0.68;79.79;101722.91;4885733;28;20138;-64
2022/10/25 09:16:14;;;;;;;8.57;4.00;;;;;;;0.80;79.13;101733.78;4916124;28;20502;-63
2022/10/25 09:19:00;;;;;;;8.68;4.13;;;;;;;0.76;78.90;101720.69;4910796;28;20093;-63
2022/10/25 09:21:54;;;;;;;12.75;4.43;;;;;;;1.17;78.89;101735.44;4897803;28;20161;-63
2022/10/25 09:24:56;;;;;;;8.77;4.90;;;;;;;1.32;77.94;101739.53;4897751;28;21170;-64
2022/10/25 09:27:53;;;;;;;11.15;5.05;;;;;;;1.54;77.38;101736.22;4913533;28;20072;-64
2022/10/25 09:30:38;;;;;;;12.07;4.22;;;;;;;1.64;76.70;101728.94;4877869;28;20064;-63
2022/10/25 09:33:20;;;;;;;6.35;3.97;;;;;;;1.75;75.83;101754.28;4906416;28;20062;-63
2022/10/25 09:36:21;;;;;;;10.10;3.95;;;;;;;1.77;74.80;101739.78;4881578;28;20054;-62
2022/10/25 09:39:47;;;;;;;13.85;6.78;;;;;;;1.93;74.12;101747.38;4914803;28;20060;-62
2022/10/25 09:42:30;;;;;;;19.08;8.93;;;;;;;1.90;73.86;101757.56;4917319;28;20100;-63
2022/10/25 09:45:28;;;;;;;17.95;9.70;;;;;;;1.94;74.07;101759.44;4944923;28;20055;-63
2022/10/25 09:48:31;;;;;;;16.98;7.10;;;;;;;1.84;74.32;101746.97;4930203;28;20051;-63
2022/10/25 09:51:51;;;;;;;16.23;7.72;;;;;;;1.63;74.34;101758.09;4915790;28;20176;-61
2022/10/25 10:00:56;;;;;;;7.88;4.65;;;;;;;1.47;75.51;101765.97;4903285;28;20055;-62
2022/10/25 10:03:41;;;;;;;9.30;3.20;;;;;;;1.55;75.84;101749.16;4926966;28;20072;-63
2022/10/25 10:06:37;;;;;;;7.53;2.95;;;;;;;1.71;75.61;101751.59;4884397;28;20049;-62
2022/10/25 10:09:23;;;;;;;3.35;2.33;;;;;;;1.91;75.27;101764.47;4891682;28;20044;-64
2022/10/25 10:12:06;;;;;;;6.82;4.03;;;;;;;2.03;75.55;101764.97;4911062;28;20676;-62
2022/10/25 10:14:57;;;;;;;37.72;10.75;;;;;;;1.87;74.46;101765.13;4916548;28;20052;-61
2022/10/25 10:17:42;;;;;;;38.50;10.40;;;;;;;1.17;74.36;101732.00;4933167;28;20055;-62
2022/10/25 10:20:29;;;;;;;30.52;9.68;;;;;;;1.21;74.49;101768.25;4937761;28;20048;-63
2022/10/25 10:23:06;;;;;;;29.60;9.90;;;;;;;1.08;74.92;101765.94;4907270;28;20032;-63
2022/10/25 10:26:22;;;;;;;36.72;9.27;;;;;;;0.86;75.18;101764.91;4931659;28;20179;-63
2022/10/25 10:29:24;;;;;;;31.52;9.15;;;;;;;0.60;75.49;101775.66;4927264;28;20107;-62
2022/10/25 10:32:28;;;;;;;25.88;9.80;;;;;;;0.46;76.15;101777.56;4868013;28;20037;-62
2022/10/25 10:35:39;;;;;;;20.90;9.85;;;;;;;0.09;76.69;101754.31;4852221;28;20079;-62
2022/10/25 10:39:07;;;;;;;22.15;8.30;;;;;;;0.19;76.86;101766.81;4921410;28;20049;-62
2022/10/25 10:42:06;;;;;;;19.73;8.23;;;;;;;0.20;77.16;101783.97;4887582;28;20058;-62
2022/10/25 10:45:31;;;;;;;29.08;8.90;;;;;;;0.23;77.72;101789.28;4930252;28;20178;-62
2022/10/25 10:52:10;;;;;;;23.80;9.25;;;;;;;0.05;78.42;101788.34;4811952;28;20057;-62
2022/10/25 10:54:53;;;;;;;21.10;9.25;;;;;;;0.03;79.05;101795.13;4838451;28;20053;-64
2022/10/25 11:01:35;;;;;;;33.53;11.07;;;;;;;-0.05;79.31;101798.19;4843526;28;20057;-62
2022/10/25 11:04:30;;;;;;;27.30;10.35;;;;;;;-0.05;79.74;101802.41;4819026;28;20121;-63
2022/10/25 11:07:38;;;;;;;28.25;9.65;;;;;;;-0.37;79.11;101762.25;4823174;28;20049;-63
2022/10/25 11:10:46;;;;;;;23.92;10.35;;;;;;;-0.19;79.71;101814.56;4827497;28;20053;-63
2022/10/25 11:13:32;;;;;;;39.65;12.38;;;;;;;-0.21;79.95;101808.47;4801863;28;20039;-64
2022/10/25 11:16:44;;;;;;;27.52;10.38;;;;;;;-0.43;79.79;101789.34;4814432;28;20060;-65
2022/10/25 11:19:58;;;;;;;22.15;9.48;;;;;;;-0.32;80.55;101807.03;4820447;28;21152;-63
2022/10/25 11:23:25;;;;;;;30.42;11.10;;;;;;;-0.41;80.49;101792.00;4810749;28;20050;-63
2022/10/25 11:26:17;;;;;;;24.77;10.82;;;;;;;-0.38;80.74;101801.56;4901879;28;20053;-65
2022/10/25 11:29:12;;;;;;;30.13;11.73;;;;;;;-0.39;80.98;101810.06;4912421;28;20040;-62
2022/10/25 11:32:16;;;;;;;32.53;11.55;;;;;;;-0.46;80.63;101809.72;4868421;28;20061;-63
2022/10/25 11:35:03;;;;;;;26.17;11.70;;;;;;;-0.56;80.78;101802.34;4905866;28;20483;-63
2022/10/25 11:37:59;;;;;;;32.22;13.70;;;;;;;-0.68;80.79;101796.56;4888529;28;20056;-63
2022/10/25 11:40:45;;;;;;;39.13;14.40;;;;;;;-0.63;80.93;101800.25;4912852;28;20136;-63
2022/10/25 11:43:47;;;;;;;42.60;15.60;;;;;;;-0.53;81.26;101812.78;4891746;28;21273;-64
2022/10/25 11:46:46;;;;;;;33.47;16.80;;;;;;;-0.49;81.15;101808.69;4902027;28;20048;-63
2022/10/25 11:49:51;;;;;;;46.63;17.10;;;;;;;-0.49;81.32;101814.72;4898492;28;20044;-63
2022/10/25 11:52:53;;;;;;;84.07;37.17;;;;;;;-0.52;81.11;101814.56;4893137;28;20113;-64
2022/10/25 11:55:49;;;;;;;72.57;31.73;;;;;;;-0.59;80.85;101822.72;4904387;28;20048;-64
2022/10/25 11:59:12;;;;;;;75.35;30.35;;;;;;;-0.66;81.63;101810.34;4874349;28;20051;-64
2022/10/25 12:02:06;;;;;;;47.85;21.60;;;;;;;-0.75;81.95;101802.16;4886760;28;20040;-62
2022/10/25 12:05:06;;;;;;;41.88;20.60;;;;;;;-0.63;82.10;101815.66;4927431;28;20071;-62
2022/10/25 12:07:52;;;;;;;42.50;18.92;;;;;;;-0.62;82.41;101816.53;4909042;28;20438;-63
2022/10/25 12:10:35;;;;;;;48.90;19.73;;;;;;;-0.60;81.97;101810.72;4925323;28;20100;-63
2022/10/25 12:13:38;;;;;;;44.45;20.50;;;;;;;-0.55;82.10;101814.41;4913145;28;20059;-63
2022/10/25 12:16:48;;;;;;;48.45;21.02;;;;;;;-0.57;82.23;101818.56;4932192;28;20048;-61
2022/10/25 12:19:32;;;;;;;47.25;21.30;;;;;;;-0.60;81.94;101813.28;4839367;28;20044;-63
2022/10/25 12:22:39;;;;;;;43.47;17.00;;;;;;;-0.70;81.74;101809.31;4885224;28;20414;-62
2022/10/25 12:25:47;;;;;;;39.60;18.88;;;;;;;-0.76;82.29;101823.50;4908992;28;20056;-62
2022/10/25 12:28:46;;;;;;;36.65;15.48;;;;;;;-0.83;82.57;101816.25;4913739;28;20053;-63
2022/10/25 12:31:29;;;;;;;36.20;14.70;;;;;;;-0.87;83.05;101820.34;4897405;28;21095;-63
2022/10/25 12:34:22;;;;;;;35.30;14.73;;;;;;;-0.96;83.49;101796.75;4850987;28;20117;-62
2022/10/25 12:37:11;;;;;;;36.42;15.43;;;;;;;-0.81;83.25;101819.81;4856751;28;20055;-63
2022/10/25 12:40:04;;;;;;;39.53;15.07;;;;;;;-0.83;83.72;101818.81;4909647;28;20051;-63
2022/10/25 12:42:53;;;;;;;35.90;15.40;;;;;;;-0.75;83.90;101823.59;4922659;28;20096;-62
2022/10/25 12:46:22;;;;;;;40.30;14.02;;;;;;;-0.75;83.76;101820.13;4923418;28;20048;-63
2022/10/25 12:49:41;;;;;;;33.90;15.20;;;;;;;-0.77;83.55;101826.88;4853616;28;20062;-62
2022/10/25 12:52:33;;;;;;;33.97;16.40;;;;;;;-1.37;83.02;101744.94;4792777;28;20067;-63
2022/10/25 12:55:50;;;;;;;35.35;15.70;;;;;;;-0.92;83.18;101817.53;4799218;28;20121;-63
2022/10/25 12:58:49;;;;;;;36.60;16.38;;;;;;;-0.99;83.20;101812.84;4730504;29;20044;-62
2022/10/25 13:01:52;;;;;;;32.42;16.33;;;;;;;-0.95;83.96;101807.09;4737887;29;20230;-63
2022/10/25 13:05:10;;;;;;;42.30;17.08;;;;;;;-0.91;83.72;101819.28;4766570;29;20174;-62
2022/10/25 13:07:51;;;;;;;44.00;16.55;;;;;;;-1.16;83.80;101764.88;4721533;29;20060;-63
2022/10/25 13:10:39;;;;;;;37.30;16.30;;;;;;;-0.84;83.55;101814.50;4728912;29;20210;-63
2022/10/25 13:14:05;;;;;;;35.33;16.48;;;;;;;-0.80;83.51;101821.56;4707885;29;20113;-64
2022/10/25 13:16:42;;;;;;;33.90;15.35;;;;;;;-0.83;83.46;101816.25;4682776;29;20050;-64
2022/10/25 13:23:58;;;;;;;35.42;17.17;;;;;;;-0.83;83.88;101803.44;4659894;29;20039;-64
2022/10/25 13:27:18;;;;;;;41.53;18.38;;;;;;;-0.91;83.64;101803.88;4736894;29;20073;-64
2022/10/25 13:30:31;;;;;;;36.10;18.90;;;;;;;-0.93;84.21;101809.75;4706188;29;20339;-63
2022/10/25 13:33:37;;;;;;;30.58;16.75;;;;;;;-1.03;84.31;101803.22;4680823;29;20041;-63
2022/10/25 13:36:21;;;;;;;32.15;15.77;;;;;;;-1.02;84.72;101809.22;4789655;28;20047;-63
2022/10/25 13:39:55;;;;;;;30.73;13.63;;;;;;;-1.11;84.37;101783.97;4799682;28;20051;-62
2022/10/25 13:42:36;;;;;;;27.90;14.27;;;;;;;-1.67;84.34;101681.69;4827721;28;20049;-62
2022/10/25 13:45:44;;;;;;;31.13;14.05;;;;;;;-0.85;84.10;101807.59;4840258;28;20050;-62
2022/10/25 13:48:48;;;;;;;30.33;14.90;;;;;;;-0.91;84.29;101795.31;4863174;28;24629;-63
2022/10/25 13:51:28;;;;;;;29.98;14.02;;;;;;;-0.88;84.22;101788.66;4869759;28;20059;-64
2022/10/25 13:54:17;;;;;;;33.30;14.07;;;;;;;-1.52;84.00;101680.00;4856528;28;20050;-64
2022/10/25 13:57:06;;;;;;;26.05;13.43;;;;;;;-0.81;83.87;101809.53;4890478;28;20044;-64
2022/10/25 14:00:02;;;;;;;25.40;13.23;;;;;;;-0.84;84.07;101815.38;4920354;28;20088;-64
2022/10/25 14:06:32;;;;;;;26.75;12.00;;;;;;;-0.92;84.73;101812.41;4922988;28;20098;-63
2022/10/25 14:09:38;;;;;;;23.85;10.60;;;;;;;-1.61;84.33;101687.16;4885666;28;20052;-64
2022/10/25 14:12:22;;;;;;;22.15;10.13;;;;;;;-1.63;84.31;101679.38;4925334;28;20044;-63
2022/10/25 14:15:05;;;;;;;23.38;11.43;;;;;;;-0.88;84.52;101814.31;4905927;28;20036;-64
2022/10/25 14:17:51;;;;;;;23.13;10.60;;;;;;;-0.88;84.69;101814.31;4937439;28;20080;-63
2022/10/25 14:20:39;;;;;;;22.90;10.93;;;;;;;-0.84;84.53;101819.63;4874364;28;20054;-64
2022/10/25 14:23:22;;;;;;;21.60;9.85;;;;;;;-0.85;84.48;101812.72;4956670;28;20103;-63
2022/10/25 14:26:17;;;;;;;18.95;9.68;;;;;;;-0.99;84.10;101810.28;4916129;28;20063;-63
2022/10/25 14:29:19;;;;;;;19.38;9.73;;;;;;;-1.03;84.39;101816.03;4931258;28;20088;-64
2022/10/25 14:34:55;;;;;;;23.70;8.52;;;;;;;-1.08;85.54;101812.34;4940134;28;20086;-63